Terminal Aerodrome Forecast
Issued by NWS Mobile, AL

Home | Current Version | Previous Version | Text Only | Print | Product List | Glossary On
Versions: 1 2 3 4 5 6 7 8 9 10 11 12 13 14 15 16 17 18 19 20 21 22 23 24 25 26 27 28
969
FTUS44 KMOB 012340
TAFMOB
TAF
KMOB 012340Z 0200/0224 16012KT P6SM VCSH SCT010 BKN110
     FM020600 14005KT 5SM BR BKN010
     FM021400 16007KT P6SM VCTS BKN015CB
     FM021700 18010KT 5SM TSRA BKN030CB=

USA.gov is the U.S. government's official web portal to all federal, state and local government web resources and services.